Time;durP1;ratioP1;P1;durP2;ratioP2;P2;SDS_P1;SDS_P2;PMS_P1;PMS_P2;Temp;Humidity;BMP_temperature;BMP_pressure;BME280_temperature;BME280_humidity;BME280_pressure;Samples;Min_cycle;Max_cycle;Signal;HPM_P1;HPM_P2
2021/09/12 00:01:23;;;;;;;22.92;8.77;;;;;;;19.66;100.00;101745.50;4973400;28;20145;-64
2021/09/12 00:03:50;;;;;;;21.88;9.13;;;;;;;19.72;100.00;101751.94;4983490;28;20059;-64
2021/09/12 00:06:16;;;;;;;22.42;9.40;;;;;;;20.06;100.00;101746.00;4977719;28;20058;-64
2021/09/12 00:08:43;;;;;;;22.90;9.60;;;;;;;19.32;100.00;101738.03;4977799;28;20141;-63
2021/09/12 00:11:09;;;;;;;21.10;8.77;;;;;;;18.94;100.00;101741.53;4975796;28;20061;-63
2021/09/12 00:13:36;;;;;;;23.27;9.18;;;;;;;19.42;100.00;101741.25;4973426;28;20082;-63
2021/09/12 00:16:02;;;;;;;29.05;10.15;;;;;;;19.17;100.00;101736.19;4982196;28;20502;-63
2021/09/12 00:18:29;;;;;;;24.40;10.18;;;;;;;19.03;100.00;101742.28;4976819;28;20069;-63
2021/09/12 00:20:55;;;;;;;22.10;9.20;;;;;;;19.02;100.00;101729.19;4978128;28;20467;-63
2021/09/12 00:23:22;;;;;;;23.38;9.82;;;;;;;19.05;100.00;101728.81;4979585;28;20060;-63
2021/09/12 00:25:48;;;;;;;18.90;9.40;;;;;;;19.07;100.00;101726.78;4970685;28;20141;-64
2021/09/12 00:28:15;;;;;;;22.58;9.75;;;;;;;19.01;100.00;101724.88;4981956;28;20165;-63
2021/09/12 00:30:41;;;;;;;22.92;9.98;;;;;;;18.73;100.00;101723.56;4974328;28;20586;-63
2021/09/12 00:33:08;;;;;;;22.17;9.43;;;;;;;18.98;100.00;101722.59;4978402;28;20054;-63
2021/09/12 00:35:34;;;;;;;19.25;9.70;;;;;;;18.78;100.00;101734.50;4976154;28;20104;-64
2021/09/12 00:38:01;;;;;;;25.23;9.85;;;;;;;18.85;100.00;101725.84;4975664;28;20141;-64
2021/09/12 00:40:27;;;;;;;24.63;9.60;;;;;;;18.85;100.00;101723.19;4976614;28;20068;-63
2021/09/12 00:42:54;;;;;;;24.27;8.82;;;;;;;19.40;100.00;101726.47;4974901;28;20145;-63
2021/09/12 00:45:20;;;;;;;19.70;9.00;;;;;;;18.94;100.00;101724.78;4979371;28;20128;-63
2021/09/12 00:47:47;;;;;;;23.88;9.50;;;;;;;18.85;100.00;101729.31;4972651;28;20671;-63
2021/09/12 00:50:15;;;;;;;27.30;11.07;;;;;;;19.07;100.00;101717.00;4977830;28;20142;-63
2021/09/12 00:52:46;;;;;;;22.15;10.55;;;;;;;18.86;100.00;101722.19;4964630;28;20413;-63
2021/09/12 00:55:14;;;;;;;25.05;10.32;;;;;;;18.64;100.00;101718.50;4976748;28;20518;-63
2021/09/12 00:57:43;;;;;;;24.02;10.50;;;;;;;18.41;100.00;101713.19;4968226;28;20128;-63
2021/09/12 01:00:11;;;;;;;26.25;12.30;;;;;;;18.45;100.00;101717.97;4976076;28;20144;-63
2021/09/12 01:02:38;;;;;;;27.23;11.85;;;;;;;18.40;100.00;101712.34;4974219;28;20136;-62
2021/09/12 01:05:07;;;;;;;21.73;11.10;;;;;;;18.26;100.00;101711.28;4971288;28;20054;-62
2021/09/12 01:07:33;;;;;;;20.70;11.00;;;;;;;18.39;100.00;101708.06;4971735;28;20929;-63
2021/09/12 01:10:03;;;;;;;23.02;11.25;;;;;;;18.73;100.00;101704.13;4972766;28;20077;-63
2021/09/12 01:12:32;;;;;;;23.25;12.00;;;;;;;18.57;100.00;101705.91;4978158;28;20078;-63
2021/09/12 01:14:59;;;;;;;29.38;13.68;;;;;;;18.42;100.00;101699.72;4972517;28;20070;-63
2021/09/12 01:17:26;;;;;;;23.38;13.88;;;;;;;18.24;100.00;101704.50;4976253;28;20146;-62
2021/09/12 01:19:53;;;;;;;24.47;14.27;;;;;;;18.38;100.00;101706.38;4974374;28;20074;-62
2021/09/12 01:22:20;;;;;;;22.35;12.88;;;;;;;18.77;100.00;101710.75;4969745;28;20137;-63
2021/09/12 01:24:46;;;;;;;27.17;14.10;;;;;;;18.73;100.00;101699.66;4972975;28;20599;-62
2021/09/12 01:27:13;;;;;;;25.63;13.65;;;;;;;18.91;100.00;101704.66;4974427;28;20078;-63
2021/09/12 01:29:40;;;;;;;24.70;13.48;;;;;;;18.92;100.00;101705.50;4978560;28;20054;-63
2021/09/12 01:32:07;;;;;;;25.40;12.27;;;;;;;18.83;100.00;101714.56;4970466;28;20146;-63
2021/09/12 01:34:33;;;;;;;22.88;12.00;;;;;;;18.91;100.00;101707.31;4972437;28;20061;-62
2021/09/12 01:37:00;;;;;;;22.67;13.13;;;;;;;18.85;100.00;101712.53;4975977;28;20042;-63
2021/09/12 01:39:26;;;;;;;18.27;11.95;;;;;;;19.09;100.00;101707.03;4967409;28;20145;-63
2021/09/12 01:41:53;;;;;;;22.55;12.00;;;;;;;18.46;100.00;101710.81;4977064;28;20148;-63
2021/09/12 01:44:24;;;;;;;23.48;12.52;;;;;;;18.60;100.00;101714.53;4969947;28;20201;-63
2021/09/12 01:46:52;;;;;;;25.80;11.57;;;;;;;18.37;100.00;101712.72;4975761;28;20443;-63
2021/09/12 01:49:19;;;;;;;29.73;13.13;;;;;;;18.47;100.00;101712.50;4960289;28;20426;-63
2021/09/12 01:51:45;;;;;;;29.90;11.93;;;;;;;18.55;100.00;101702.63;4975302;28;20050;-63
2021/09/12 01:54:12;;;;;;;22.20;10.77;;;;;;;18.84;100.00;101710.91;4972779;28;20169;-63
2021/09/12 01:56:38;;;;;;;19.73;10.05;;;;;;;18.84;100.00;101714.38;4967381;28;20046;-63
2021/09/12 01:59:05;;;;;;;19.88;10.50;;;;;;;18.82;100.00;101703.09;4974359;28;20107;-63
2021/09/12 02:01:32;;;;;;;22.17;10.95;;;;;;;18.41;100.00;101700.72;4961061;28;20141;-63
2021/09/12 02:03:59;;;;;;;25.65;10.93;;;;;;;18.14;100.00;101712.69;4976391;28;20058;-63
2021/09/12 02:06:26;;;;;;;19.77;10.30;;;;;;;18.05;100.00;101709.22;4972101;28;20248;-63
2021/09/12 02:08:53;;;;;;;21.27;10.13;;;;;;;18.08;100.00;101706.25;4976544;28;20464;-64
2021/09/12 02:11:20;;;;;;;23.70;10.13;;;;;;;17.93;100.00;101714.09;4973971;28;20153;-63
2021/09/12 02:13:47;;;;;;;20.13;9.75;;;;;;;18.38;100.00;101717.00;4961207;28;20053;-63
2021/09/12 02:16:13;;;;;;;21.35;9.15;;;;;;;18.50;100.00;101712.97;4973801;28;20053;-63
2021/09/12 02:18:40;;;;;;;21.63;9.55;;;;;;;18.25;100.00;101709.63;4964550;28;20136;-62
2021/09/12 02:21:06;;;;;;;18.67;9.40;;;;;;;18.47;100.00;101718.63;4973216;28;20525;-63
2021/09/12 02:23:33;;;;;;;23.13;10.23;;;;;;;18.07;100.00;101722.34;4967339;28;20154;-62
2021/09/12 02:25:59;;;;;;;28.30;10.15;;;;;;;17.98;100.00;101714.41;4969911;28;20057;-63
2021/09/12 02:28:26;;;;;;;20.65;8.63;;;;;;;17.75;100.00;101727.59;4967714;28;20514;-64
2021/09/12 02:30:52;;;;;;;16.30;8.95;;;;;;;17.97;100.00;101719.91;4968992;28;20141;-64
2021/09/12 02:33:19;;;;;;;20.20;9.27;;;;;;;18.49;100.00;101716.59;4973857;28;20167;-64
2021/09/12 02:35:45;;;;;;;24.27;8.55;;;;;;;18.66;97.49;101716.47;4965169;28;20505;-64
2021/09/12 02:38:12;;;;;;;17.05;8.85;;;;;;;18.90;93.36;101726.97;4975145;28;20128;-64
2021/09/12 02:40:40;;;;;;;16.15;8.80;;;;;;;18.63;96.17;101725.63;4955451;28;20054;-64
2021/09/12 02:43:07;;;;;;;20.27;9.07;;;;;;;18.73;95.74;101718.25;4970928;28;20153;-64
2021/09/12 02:45:34;;;;;;;18.05;8.75;;;;;;;18.40;96.53;101725.63;4974795;28;20283;-64
2021/09/12 02:48:01;;;;;;;19.50;8.23;;;;;;;18.40;94.91;101720.31;4968618;28;20064;-65
2021/09/12 02:50:28;;;;;;;16.60;6.75;;;;;;;18.61;90.72;101718.88;4976267;28;20511;-64
2021/09/12 02:52:55;;;;;;;15.93;7.15;;;;;;;18.68;88.92;101719.78;4970375;28;20050;-64
2021/09/12 02:55:21;;;;;;;18.33;7.05;;;;;;;18.47;90.14;101723.94;4970685;28;20149;-64
2021/09/12 02:57:48;;;;;;;10.40;6.32;;;;;;;17.84;93.22;101720.47;4972065;28;20724;-64
2021/09/12 03:00:15;;;;;;;14.88;6.00;;;;;;;17.76;96.25;101725.78;4973788;28;20058;-63
2021/09/12 03:02:41;;;;;;;13.32;6.50;;;;;;;17.33;97.30;101722.59;4980015;28;20050;-64
2021/09/12 03:05:08;;;;;;;11.23;5.97;;;;;;;17.54;96.74;101729.97;4965306;28;20437;-64
2021/09/12 03:07:35;;;;;;;12.77;6.22;;;;;;;17.23;97.39;101730.72;4969193;28;20046;-63
2021/09/12 03:10:01;;;;;;;11.93;6.65;;;;;;;16.90;99.68;101730.75;4960556;28;20146;-63
2021/09/12 03:12:28;;;;;;;18.55;6.75;;;;;;;17.81;95.15;101736.69;4978986;28;20082;-64
2021/09/12 03:14:54;;;;;;;12.98;6.85;;;;;;;18.20;90.94;101727.91;4968792;28;20111;-64
2021/09/12 03:17:21;;;;;;;16.42;6.53;;;;;;;18.22;88.71;101736.53;4974564;28;20054;-64
2021/09/12 03:19:47;;;;;;;15.45;6.72;;;;;;;18.08;88.75;101731.97;4970382;28;20661;-63
2021/09/12 03:22:14;;;;;;;16.10;6.57;;;;;;;18.15;87.72;101722.28;4956760;28;20492;-64
2021/09/12 03:24:40;;;;;;;14.57;7.32;;;;;;;18.05;90.10;101727.00;4973869;28;20125;-64
2021/09/12 03:27:07;;;;;;;16.25;6.85;;;;;;;17.78;89.32;101726.44;4967910;28;20140;-64
2021/09/12 03:29:33;;;;;;;18.52;7.30;;;;;;;17.95;89.63;101729.88;4976329;28;20474;-64
2021/09/12 03:32:00;;;;;;;13.18;6.43;;;;;;;17.95;89.56;101725.41;4965975;28;20177;-64
2021/09/12 03:34:26;;;;;;;25.77;8.23;;;;;;;17.59;91.68;101725.81;4972729;28;20078;-64
2021/09/12 03:36:53;;;;;;;19.13;7.38;;;;;;;18.08;89.84;101734.63;4969475;28;20081;-63
2021/09/12 03:39:19;;;;;;;16.95;7.00;;;;;;;18.14;87.68;101729.44;4966806;28;20506;-64
2021/09/12 03:41:46;;;;;;;12.75;7.13;;;;;;;18.32;87.63;101728.34;4971357;28;20142;-63
2021/09/12 03:44:13;;;;;;;17.42;7.82;;;;;;;17.88;88.89;101724.44;4965606;28;20085;-63
2021/09/12 03:46:39;;;;;;;18.27;8.15;;;;;;;17.71;91.02;101720.97;4969961;28;20138;-63
2021/09/12 03:49:06;;;;;;;14.32;7.25;;;;;;;17.75;90.38;101726.75;4957831;28;20096;-63
2021/09/12 03:51:33;;;;;;;20.15;8.65;;;;;;;17.60;92.52;101718.69;4970260;28;20504;-64
2021/09/12 03:53:59;;;;;;;14.27;7.50;;;;;;;17.61;91.98;101725.66;4975660;28;20675;-63
2021/09/12 03:56:26;;;;;;;16.17;7.60;;;;;;;17.61;91.13;101724.84;4963661;28;20137;-63
2021/09/12 03:58:52;;;;;;;13.15;7.20;;;;;;;17.69;90.76;101724.81;4975454;28;20051;-63
2021/09/12 04:01:19;;;;;;;16.23;7.85;;;;;;;17.47;91.40;101721.88;4956980;28;21019;-63
2021/09/12 04:03:46;;;;;;;16.80;7.13;;;;;;;17.47;91.55;101729.03;4967947;28;20389;-63
2021/09/12 04:06:12;;;;;;;14.52;7.93;;;;;;;17.35;93.52;101720.59;4964033;28;20105;-63
2021/09/12 04:08:39;;;;;;;14.98;7.57;;;;;;;17.34;93.31;101708.31;4973951;28;20599;-64
2021/09/12 04:11:05;;;;;;;14.27;7.72;;;;;;;17.11;94.90;101717.00;4969333;28;20166;-63
2021/09/12 04:13:32;;;;;;;15.63;7.70;;;;;;;17.26;94.33;101716.28;4965731;28;20578;-63
2021/09/12 04:15:59;;;;;;;18.92;8.25;;;;;;;17.32;95.29;101720.91;4964984;28;20056;-63
2021/09/12 04:18:25;;;;;;;14.18;7.28;;;;;;;17.63;91.64;101722.84;4963178;28;20050;-64
2021/09/12 04:20:51;;;;;;;22.67;9.02;;;;;;;17.49;94.12;101719.06;4975898;28;20078;-62
2021/09/12 04:23:18;;;;;;;17.77;8.32;;;;;;;17.36;93.96;101720.41;4969590;28;20153;-63
2021/09/12 04:25:44;;;;;;;19.65;8.07;;;;;;;17.55;91.48;101716.56;4976310;28;20165;-64
2021/09/12 04:28:11;;;;;;;14.88;7.85;;;;;;;17.33;92.38;101720.75;4975563;28;20129;-63
2021/09/12 04:30:37;;;;;;;15.98;8.88;;;;;;;17.24;93.95;101713.81;4963037;28;20599;-64
2021/09/12 04:33:04;;;;;;;16.60;8.57;;;;;;;17.41;92.91;101721.75;4975284;28;20142;-64
2021/09/12 04:35:30;;;;;;;18.42;8.65;;;;;;;17.16;93.34;101713.81;4970496;28;20173;-64
2021/09/12 04:37:57;;;;;;;18.75;9.02;;;;;;;16.76;96.88;101729.56;4970976;28;20109;-64
2021/09/12 04:40:23;;;;;;;18.38;8.45;;;;;;;16.76;97.44;101728.72;4969485;28;20169;-64
2021/09/12 04:42:50;;;;;;;17.85;8.85;;;;;;;16.68;97.22;101732.19;4970806;28;20192;-64
2021/09/12 04:45:16;;;;;;;21.08;9.27;;;;;;;16.72;96.15;101728.22;4974809;28;20057;-64
2021/09/12 04:47:43;;;;;;;15.82;9.45;;;;;;;16.76;96.85;101726.09;4966418;28;20105;-64
2021/09/12 04:50:10;;;;;;;19.33;9.32;;;;;;;16.74;96.83;101730.69;4974927;28;20090;-63
2021/09/12 04:52:36;;;;;;;22.10;10.35;;;;;;;16.68;96.80;101729.56;4966056;28;20420;-64
2021/09/12 04:55:03;;;;;;;21.38;9.40;;;;;;;16.76;96.31;101742.81;4974202;28;20308;-63
2021/09/12 04:57:30;;;;;;;22.95;10.18;;;;;;;16.57;97.30;101741.28;4965530;28;20518;-64
2021/09/12 04:59:56;;;;;;;15.82;9.25;;;;;;;16.64;96.60;101737.97;4974457;28;20182;-64
2021/09/12 05:02:23;;;;;;;19.50;10.02;;;;;;;16.51;97.59;101735.81;4972399;28;20130;-63
2021/09/12 05:04:49;;;;;;;24.40;9.80;;;;;;;16.36;100.00;101743.56;4971386;28;20567;-64
2021/09/12 05:07:16;;;;;;;20.95;10.70;;;;;;;16.50;99.85;101748.22;4976355;28;20141;-64
2021/09/12 05:09:42;;;;;;;21.13;11.18;;;;;;;16.64;98.32;101748.56;4965218;28;20204;-64
2021/09/12 05:12:09;;;;;;;23.60;10.85;;;;;;;16.56;98.21;101755.53;4970141;28;20156;-63
2021/09/12 05:14:35;;;;;;;22.27;10.02;;;;;;;16.46;97.54;101752.19;4973467;28;20129;-63
2021/09/12 05:17:02;;;;;;;22.77;10.63;;;;;;;16.47;97.43;101753.84;4968584;28;20050;-63
2021/09/12 05:19:28;;;;;;;20.25;10.95;;;;;;;16.23;98.41;101754.63;4974105;28;20133;-63
2021/09/12 05:21:55;;;;;;;25.92;11.20;;;;;;;16.40;97.95;101755.47;4968026;28;20141;-63
2021/09/12 05:24:21;;;;;;;25.25;11.82;;;;;;;16.38;98.11;101758.28;4971471;28;20047;-64
2021/09/12 05:26:47;;;;;;;23.60;12.23;;;;;;;16.18;99.89;101756.91;4966513;28;20146;-63
2021/09/12 05:29:15;;;;;;;22.90;11.55;;;;;;;16.20;99.38;101757.59;4974718;28;20053;-63
2021/09/12 05:31:41;;;;;;;21.60;11.90;;;;;;;16.13;99.74;101760.06;4973269;28;20373;-63
2021/09/12 05:34:08;;;;;;;22.20;11.93;;;;;;;16.27;98.99;101769.19;4967022;28;20141;-63
2021/09/12 05:36:34;;;;;;;24.13;11.25;;;;;;;16.27;100.00;101776.28;4974570;28;20381;-62
2021/09/12 05:39:01;;;;;;;25.70;12.07;;;;;;;16.28;98.85;101770.84;4954880;28;20054;-64
2021/09/12 05:41:27;;;;;;;25.23;12.40;;;;;;;16.20;100.00;101770.81;4974099;28;20539;-63
2021/09/12 05:43:53;;;;;;;18.08;11.35;;;;;;;16.35;99.60;101771.03;4964198;28;20359;-64
2021/09/12 05:46:20;;;;;;;26.00;12.93;;;;;;;15.80;100.00;101774.97;4974857;28;20480;-63
2021/09/12 05:48:46;;;;;;;23.17;12.43;;;;;;;15.71;100.00;101774.03;4973462;28;20468;-64
2021/09/12 05:51:13;;;;;;;22.13;11.95;;;;;;;15.74;100.00;101771.13;4962782;28;20051;-64
2021/09/12 05:53:39;;;;;;;23.73;13.77;;;;;;;15.49;100.00;101766.66;4968620;28;20581;-64
2021/09/12 05:56:06;;;;;;;25.92;13.95;;;;;;;15.29;100.00;101772.13;4964850;28;20562;-63
2021/09/12 05:58:32;;;;;;;22.48;12.55;;;;;;;15.07;100.00;101775.25;4972895;28;20050;-64
2021/09/12 06:00:59;;;;;;;26.33;14.02;;;;;;;15.32;100.00;101777.09;4967765;28;20141;-63
2021/09/12 06:03:26;;;;;;;24.33;13.25;;;;;;;15.70;100.00;101782.13;4975665;28;20098;-63
2021/09/12 06:05:53;;;;;;;24.77;13.80;;;;;;;15.73;100.00;101774.75;4974726;28;20055;-63
2021/09/12 06:08:19;;;;;;;23.35;12.23;;;;;;;15.82;100.00;101775.63;4965400;28;20137;-64
2021/09/12 06:10:45;;;;;;;28.40;12.77;;;;;;;15.75;100.00;101783.34;4978062;28;20105;-63
2021/09/12 06:13:12;;;;;;;22.45;12.73;;;;;;;15.93;100.00;101782.44;4970068;28;20081;-63
2021/09/12 06:15:38;;;;;;;21.92;12.30;;;;;;;16.17;100.00;101782.56;4976071;28;20145;-63
2021/09/12 06:18:05;;;;;;;29.13;13.73;;;;;;;16.01;100.00;101777.19;4971000;28;20057;-63
2021/09/12 06:20:31;;;;;;;25.17;12.73;;;;;;;15.78;100.00;101780.41;4967610;28;20046;-64
2021/09/12 06:22:58;;;;;;;23.55;12.20;;;;;;;15.20;100.00;101776.50;4971983;28;20090;-64
2021/09/12 06:25:24;;;;;;;27.13;13.27;;;;;;;14.98;100.00;101784.94;4968226;28;20050;-64
2021/09/12 06:27:51;;;;;;;21.92;12.57;;;;;;;14.86;100.00;101788.75;4976114;28;20140;-64
2021/09/12 06:30:18;;;;;;;21.08;11.63;;;;;;;14.85;100.00;101792.41;4962285;28;20065;-64
2021/09/12 06:32:47;;;;;;;25.35;12.90;;;;;;;14.83;100.00;101789.91;4975816;28;20071;-64
2021/09/12 06:35:14;;;;;;;22.48;11.93;;;;;;;14.78;100.00;101798.28;4963962;28;20086;-63
2021/09/12 06:37:41;;;;;;;27.60;12.23;;;;;;;14.77;100.00;101793.16;4979532;28;20165;-63
2021/09/12 06:40:08;;;;;;;22.02;12.13;;;;;;;14.80;100.00;101793.69;4974823;28;20142;-63
2021/09/12 06:42:35;;;;;;;25.40;12.63;;;;;;;14.69;100.00;101793.06;4971397;28;20060;-64
2021/09/12 06:45:02;;;;;;;21.52;11.88;;;;;;;14.69;100.00;101807.09;4974209;28;20038;-64
2021/09/12 06:47:28;;;;;;;20.77;11.27;;;;;;;14.95;100.00;101796.59;4968508;28;20061;-64
2021/09/12 06:49:55;;;;;;;18.38;11.80;;;;;;;15.50;100.00;101786.78;4970261;28;20138;-64
2021/09/12 06:52:21;;;;;;;19.30;10.27;;;;;;;15.61;100.00;101787.38;4973788;28;20523;-64
2021/09/12 06:54:48;;;;;;;20.80;10.60;;;;;;;15.34;100.00;101784.88;4974926;28;20480;-64
2021/09/12 06:57:14;;;;;;;18.90;10.50;;;;;;;15.65;100.00;101781.78;4977152;28;20134;-64
2021/09/12 06:59:40;;;;;;;18.42;11.23;;;;;;;15.50;100.00;101784.16;4966912;28;20125;-64
2021/09/12 07:02:07;;;;;;;16.92;9.75;;;;;;;15.30;100.00;101778.25;4972567;28;20575;-64
2021/09/12 07:04:34;;;;;;;20.13;9.65;;;;;;;15.34;100.00;101779.59;4968094;28;20058;-63
2021/09/12 07:07:01;;;;;;;18.60;9.23;;;;;;;15.31;100.00;101787.81;4978664;28;20530;-64
2021/09/12 07:09:27;;;;;;;20.27;10.90;;;;;;;15.72;100.00;101786.28;4968242;28;20170;-64
2021/09/12 07:11:53;;;;;;;21.75;10.68;;;;;;;15.45;100.00;101781.97;4974044;28;20082;-63
2021/09/12 07:14:40;;;;;;;22.35;10.15;;;;;;;15.56;100.00;101779.09;4972376;28;20046;-63
2021/09/12 07:17:06;;;;;;;18.20;9.23;;;;;;;15.71;100.00;101783.78;4965169;28;20145;-64
2021/09/12 07:19:33;;;;;;;22.60;10.73;;;;;;;16.01;100.00;101777.19;4970832;28;20133;-64
2021/09/12 07:21:59;;;;;;;16.38;9.63;;;;;;;15.98;100.00;101778.34;4964685;28;20684;-64
2021/09/12 07:24:26;;;;;;;20.33;10.10;;;;;;;15.98;100.00;101785.47;4974153;28;20086;-64
2021/09/12 07:26:52;;;;;;;21.75;10.15;;;;;;;16.15;100.00;101778.41;4965754;28;21095;-64
2021/09/12 07:29:19;;;;;;;22.52;10.27;;;;;;;16.26;100.00;101775.47;4969225;28;20150;-64
2021/09/12 07:31:45;;;;;;;18.23;9.73;;;;;;;15.93;100.00;101788.56;4966986;28;20050;-64
2021/09/12 07:34:12;;;;;;;26.15;11.18;;;;;;;15.97;100.00;101791.72;4966418;28;20409;-64
2021/09/12 07:36:39;;;;;;;23.70;10.30;;;;;;;15.82;100.00;101778.28;4971827;28;20154;-64
2021/09/12 07:39:05;;;;;;;22.17;10.48;;;;;;;15.85;100.00;101780.59;4965798;28;20686;-64
2021/09/12 07:41:32;;;;;;;25.80;11.27;;;;;;;16.13;100.00;101781.22;4972864;28;20545;-64
2021/09/12 07:43:58;;;;;;;17.83;10.02;;;;;;;16.41;100.00;101779.16;4960593;28;20267;-64
2021/09/12 07:46:25;;;;;;;18.80;10.02;;;;;;;16.58;100.00;101776.53;4970671;28;20125;-64
2021/09/12 07:48:51;;;;;;;22.98;10.13;;;;;;;16.67;100.00;101782.69;4975885;28;20140;-64
2021/09/12 07:51:18;;;;;;;23.50;10.85;;;;;;;16.70;100.00;101785.00;4966424;28;20093;-64
2021/09/12 07:53:44;;;;;;;23.40;10.13;;;;;;;16.62;100.00;101788.47;4978214;28;20161;-64
2021/09/12 07:56:11;;;;;;;21.20;10.60;;;;;;;16.80;100.00;101777.75;4968458;28;20082;-64
2021/09/12 07:58:37;;;;;;;18.00;9.88;;;;;;;16.87;100.00;101777.94;4978698;28;20109;-64
2021/09/12 08:01:04;;;;;;;23.65;10.75;;;;;;;16.77;100.00;101786.00;4969958;28;20090;-65
2021/09/12 08:03:31;;;;;;;19.30;9.82;;;;;;;16.82;100.00;101782.91;4979087;28;20046;-63
2021/09/12 08:05:57;;;;;;;19.52;10.20;;;;;;;16.91;100.00;101782.72;4980307;28;21345;-64
2021/09/12 08:08:24;;;;;;;19.05;9.80;;;;;;;16.69;100.00;101780.72;4974651;28;20085;-64
2021/09/12 08:10:51;;;;;;;21.50;11.00;;;;;;;16.59;100.00;101786.97;4974444;28;20129;-64
2021/09/12 08:13:17;;;;;;;24.42;10.25;;;;;;;16.76;100.00;101784.38;4969815;28;20062;-63
2021/09/12 08:15:44;;;;;;;26.98;11.75;;;;;;;16.98;100.00;101791.69;4974183;28;20434;-64
2021/09/12 08:18:11;;;;;;;18.08;10.55;;;;;;;17.25;100.00;101797.66;4975144;28;20484;-64
2021/09/12 08:20:37;;;;;;;23.63;11.23;;;;;;;17.32;100.00;101797.81;4971358;28;20133;-64
2021/09/12 08:23:04;;;;;;;20.75;11.57;;;;;;;17.47;100.00;101790.03;4976655;28;20061;-64
2021/09/12 08:25:31;;;;;;;22.98;10.90;;;;;;;17.57;100.00;101799.44;4964882;28;20496;-64
2021/09/12 08:27:57;;;;;;;19.90;10.10;;;;;;;17.62;99.03;101804.25;4971646;28;20121;-64
2021/09/12 08:30:24;;;;;;;19.67;10.30;;;;;;;17.97;100.00;101807.50;4966923;28;20117;-63
2021/09/12 08:32:50;;;;;;;19.67;11.18;;;;;;;17.94;96.17;101806.00;4977281;28;20082;-64
2021/09/12 08:35:17;;;;;;;20.30;10.55;;;;;;;18.14;97.52;101805.63;4976294;28;20420;-63
2021/09/12 08:37:44;;;;;;;18.75;10.20;;;;;;;18.04;96.07;101811.13;4965342;28;20057;-64
2021/09/12 08:40:11;;;;;;;18.10;10.63;;;;;;;18.26;95.34;101816.69;4969014;28;20302;-63
2021/09/12 08:42:41;;;;;;;24.55;11.13;;;;;;;18.31;94.66;101822.31;4966883;28;20062;-64
2021/09/12 08:45:08;;;;;;;22.65;10.27;;;;;;;18.43;94.55;101828.06;4976254;28;20372;-64
2021/09/12 08:47:35;;;;;;;16.52;9.77;;;;;;;18.51;94.23;101825.38;4968182;28;20547;-63
2021/09/12 08:50:02;;;;;;;20.20;10.10;;;;;;;17.97;95.86;101826.94;4976115;28;20047;-64
2021/09/12 08:52:29;;;;;;;23.10;10.33;;;;;;;17.75;96.56;101828.41;4970646;28;20137;-63
2021/09/12 08:54:55;;;;;;;24.75;10.73;;;;;;;17.97;96.52;101826.94;4962958;28;20513;-63
2021/09/12 08:57:22;;;;;;;17.13;9.50;;;;;;;18.19;95.74;101829.84;4976619;28;20153;-63
2021/09/12 08:59:52;;;;;;;20.60;9.68;;;;;;;18.37;95.56;101829.59;4971483;28;20158;-63
2021/09/12 09:02:26;;;;;;;19.60;9.10;;;;;;;18.22;96.39;101824.16;4972799;28;20081;-63
2021/09/12 09:05:02;;;;;;;18.50;8.98;;;;;;;18.51;95.69;101826.19;4968447;28;20380;-64
2021/09/12 09:07:33;;;;;;;19.20;10.50;;;;;;;18.56;91.53;101833.63;4967080;28;20058;-63
2021/09/12 09:10:03;;;;;;;17.20;9.30;;;;;;;18.36;93.32;101818.13;4971218;28;20662;-64
2021/09/12 09:12:33;;;;;;;15.30;9.02;;;;;;;18.67;93.23;101819.94;4976227;28;20161;-63
2021/09/12 09:15:03;;;;;;;19.33;9.27;;;;;;;18.76;92.55;101818.91;4974712;28;20053;-63
2021/09/12 09:17:34;;;;;;;17.20;8.55;;;;;;;18.86;90.35;101815.22;4965001;28;20136;-64
2021/09/12 09:20:00;;;;;;;18.38;8.90;;;;;;;18.93;91.63;101814.34;4973715;28;20510;-64
2021/09/12 09:22:32;;;;;;;20.15;10.07;;;;;;;18.71;92.26;101821.25;4970978;28;20540;-64
2021/09/12 09:25:10;;;;;;;22.67;9.38;;;;;;;19.12;91.43;101817.50;4976488;28;20046;-63
2021/09/12 09:27:57;;;;;;;;;;;;;;;19.06;88.81;101821.69;4967643;28;20047;-63
2021/09/12 09:30:27;;;;;;;19.20;9.57;;;;;;;19.15;90.20;101827.78;4970664;28;20016;-63
2021/09/12 09:33:14;;;;;;;20.10;9.32;;;;;;;19.19;88.61;101820.28;4972255;28;20058;-63
2021/09/12 09:35:53;;;;;;;20.90;9.52;;;;;;;19.31;89.35;101824.19;4974792;28;20054;-64
2021/09/12 09:38:22;;;;;;;18.35;9.15;;;;;;;19.38;87.89;101827.75;4972855;28;20201;-63
2021/09/12 09:41:17;;;;;;;18.83;8.30;;;;;;;19.93;88.97;101829.25;4967465;28;20538;-63
2021/09/12 09:43:52;;;;;;;15.57;9.50;;;;;;;19.65;87.51;101826.31;4967664;28;20061;-63
2021/09/12 09:46:42;;;;;;;20.23;9.68;;;;;;;19.78;85.91;101825.75;4961702;28;20077;-63
2021/09/12 09:49:28;;;;;;;17.70;9.55;;;;;;;19.36;85.78;101829.75;4974161;28;20073;-63
2021/09/12 09:51:57;;;;;;;17.40;9.40;;;;;;;19.56;86.76;101822.09;4968291;28;20089;-63
2021/09/12 09:54:26;;;;;;;23.05;10.18;;;;;;;19.40;88.17;101827.56;4975527;28;20162;-62
2021/09/12 09:56:54;;;;;;;17.75;8.52;;;;;;;19.69;86.16;101821.47;4970677;28;20121;-63
2021/09/12 09:59:22;;;;;;;18.15;10.02;;;;;;;19.68;86.08;101815.34;4971150;28;20105;-63
2021/09/12 10:01:51;;;;;;;16.23;9.00;;;;;;;19.97;85.94;101816.34;4971534;28;20161;-63
2021/09/12 10:04:23;;;;;;;18.73;9.73;;;;;;;19.85;86.19;101815.19;4976163;28;20116;-63
2021/09/12 10:06:50;;;;;;;18.42;9.40;;;;;;;19.74;86.53;101811.16;4979867;28;20077;-62
2021/09/12 10:09:18;;;;;;;17.27;9.40;;;;;;;19.61;85.29;101805.59;4965654;28;20150;-62
2021/09/12 10:11:56;;;;;;;19.45;8.77;;;;;;;19.92;86.60;101814.25;4975049;28;20145;-63
2021/09/12 10:14:28;;;;;;;18.58;8.73;;;;;;;20.06;83.14;101809.13;4969580;28;20209;-62
2021/09/12 10:16:57;;;;;;;16.25;9.18;;;;;;;19.87;83.79;101818.47;4976008;28;20137;-63
2021/09/12 10:19:36;;;;;;;19.13;8.90;;;;;;;19.99;82.25;101817.00;4969248;28;20062;-63
2021/09/12 10:22:14;;;;;;;20.05;9.52;;;;;;;19.92;82.77;101811.59;4977978;28;20053;-63
2021/09/12 10:25:04;;;;;;;17.88;9.35;;;;;;;20.05;83.05;101821.63;4971572;28;20046;-63
2021/09/12 10:27:45;;;;;;;18.35;9.88;;;;;;;20.17;83.64;101821.97;4969618;28;20246;-62
2021/09/12 10:30:43;;;;;;;16.85;8.45;;;;;;;20.11;82.84;101820.03;4968918;28;20129;-63
2021/09/12 10:33:13;;;;;;;15.43;9.80;;;;;;;20.01;81.05;101822.97;4975875;28;20136;-64
2021/09/12 10:35:46;;;;;;;19.65;10.05;;;;;;;20.01;82.28;101822.97;4979481;28;20053;-63
2021/09/12 10:38:23;;;;;;;19.75;9.85;;;;;;;19.90;83.56;101826.94;4963245;28;20085;-63
2021/09/12 10:40:49;;;;;;;16.95;9.35;;;;;;;19.91;83.06;101814.44;4970302;28;20159;-63
2021/09/12 10:43:24;;;;;;;17.27;10.50;;;;;;;20.19;82.04;101819.94;4967417;28;20150;-63
2021/09/12 10:46:03;;;;;;;22.67;10.30;;;;;;;19.99;82.29;101821.50;4971390;28;20547;-63
2021/09/12 10:48:49;;;;;;;20.50;10.77;;;;;;;20.03;84.07;101817.47;4964019;28;20054;-63
2021/09/12 10:51:18;;;;;;;18.25;9.55;;;;;;;20.20;83.67;101813.59;4968342;28;20177;-64
2021/09/12 10:53:50;;;;;;;16.75;9.88;;;;;;;20.24;82.92;101816.72;4959654;28;20046;-64
2021/09/12 10:56:17;;;;;;;16.73;9.98;;;;;;;20.14;82.85;101812.50;4972738;28;20690;-64
2021/09/12 10:58:51;;;;;;;21.77;11.60;;;;;;;20.22;83.38;101822.22;4974321;28;20058;-63
2021/09/12 11:01:28;;;;;;;20.40;11.95;;;;;;;20.17;83.13;101815.78;4968595;28;20142;-63
2021/09/12 11:03:59;;;;;;;22.08;12.25;;;;;;;20.20;86.08;101818.91;4974683;28;20070;-63
2021/09/12 11:06:37;;;;;;;21.73;12.90;;;;;;;20.38;82.95;101818.50;4952738;28;20072;-64
2021/09/12 11:09:05;;;;;;;;;;;;;;;20.31;82.35;101817.63;4977690;28;20145;-63
2021/09/12 11:11:32;;;;;;;26.73;15.43;;;;;;;20.11;82.63;101815.53;4967825;28;20458;-63
2021/09/12 11:13:59;;;;;;;24.60;14.77;;;;;;;20.50;82.60;101813.53;4975326;28;20496;-64